sensor_id;sensor_type;location;lat;lon;timestamp;P1;durP1;ratioP1;P2;durP2;ratioP2
30874;SDS011;17581;43.222;27.924;2023-03-26T00:01:55;135.95;;;59.33;;
30874;SDS011;17581;43.222;27.924;2023-03-26T00:04:22;144.95;;;59.60;;
30874;SDS011;17581;43.222;27.924;2023-03-26T00:06:49;138.75;;;60.33;;
30874;SDS011;17581;43.222;27.924;2023-03-26T00:09:15;142.85;;;60.60;;
30874;SDS011;17581;43.222;27.924;2023-03-26T00:11:42;133.57;;;60.83;;
30874;SDS011;17581;43.222;27.924;2023-03-26T00:14:09;127.35;;;55.03;;
30874;SDS011;17581;43.222;27.924;2023-03-26T00:16:38;122.40;;;53.60;;
30874;SDS011;17581;43.222;27.924;2023-03-26T00:19:07;134.85;;;58.63;;
30874;SDS011;17581;43.222;27.924;2023-03-26T00:21:33;135.35;;;61.38;;
30874;SDS011;17581;43.222;27.924;2023-03-26T00:24:03;134.20;;;57.22;;
30874;SDS011;17581;43.222;27.924;2023-03-26T00:26:31;118.20;;;54.63;;
30874;SDS011;17581;43.222;27.924;2023-03-26T00:28:58;127.82;;;55.83;;
30874;SDS011;17581;43.222;27.924;2023-03-26T00:31:24;127.05;;;56.03;;
30874;SDS011;17581;43.222;27.924;2023-03-26T00:33:50;115.85;;;56.78;;
30874;SDS011;17581;43.222;27.924;2023-03-26T00:36:19;126.60;;;57.80;;
30874;SDS011;17581;43.222;27.924;2023-03-26T00:38:46;134.73;;;61.10;;
30874;SDS011;17581;43.222;27.924;2023-03-26T00:41:14;136.80;;;66.10;;
30874;SDS011;17581;43.222;27.924;2023-03-26T00:44:03;147.38;;;68.80;;
30874;SDS011;17581;43.222;27.924;2023-03-26T00:46:29;144.88;;;74.82;;
30874;SDS011;17581;43.222;27.924;2023-03-26T00:48:55;156.85;;;78.22;;
30874;SDS011;17581;43.222;27.924;2023-03-26T00:51:22;154.10;;;79.03;;
30874;SDS011;17581;43.222;27.924;2023-03-26T00:53:48;164.57;;;81.53;;
30874;SDS011;17581;43.222;27.924;2023-03-26T00:56:14;176.25;;;81.82;;
30874;SDS011;17581;43.222;27.924;2023-03-26T00:58:40;170.32;;;85.05;;
30874;SDS011;17581;43.222;27.924;2023-03-26T01:01:07;182.00;;;90.10;;
30874;SDS011;17581;43.222;27.924;2023-03-26T01:03:35;194.95;;;95.15;;
30874;SDS011;17581;43.222;27.924;2023-03-26T01:06:05;195.82;;;92.90;;
30874;SDS011;17581;43.222;27.924;2023-03-26T01:08:42;177.98;;;90.85;;
30874;SDS011;17581;43.222;27.924;2023-03-26T01:11:22;184.10;;;93.13;;
30874;SDS011;17581;43.222;27.924;2023-03-26T01:13:56;177.75;;;92.90;;
30874;SDS011;17581;43.222;27.924;2023-03-26T01:16:33;179.93;;;87.20;;
30874;SDS011;17581;43.222;27.924;2023-03-26T01:19:14;166.85;;;84.47;;
30874;SDS011;17581;43.222;27.924;2023-03-26T01:22:02;169.82;;;87.85;;
30874;SDS011;17581;43.222;27.924;2023-03-26T01:24:29;160.65;;;84.50;;
30874;SDS011;17581;43.222;27.924;2023-03-26T01:27:13;156.93;;;83.20;;
30874;SDS011;17581;43.222;27.924;2023-03-26T01:32:52;167.65;;;85.50;;
30874;SDS011;17581;43.222;27.924;2023-03-26T01:35:31;167.75;;;86.03;;
30874;SDS011;17581;43.222;27.924;2023-03-26T01:40:47;171.65;;;91.53;;
30874;SDS011;17581;43.222;27.924;2023-03-26T01:46:00;182.43;;;93.22;;
30874;SDS011;17581;43.222;27.924;2023-03-26T01:48:36;174.50;;;90.90;;
30874;SDS011;17581;43.222;27.924;2023-03-26T01:51:04;178.02;;;90.68;;
30874;SDS011;17581;43.222;27.924;2023-03-26T01:53:31;175.88;;;92.00;;
30874;SDS011;17581;43.222;27.924;2023-03-26T01:56:18;162.25;;;89.18;;
30874;SDS011;17581;43.222;27.924;2023-03-26T01:59:11;164.20;;;87.35;;
30874;SDS011;17581;43.222;27.924;2023-03-26T02:01:47;156.00;;;85.90;;
30874;SDS011;17581;43.222;27.924;2023-03-26T02:07:13;167.13;;;87.40;;
30874;SDS011;17581;43.222;27.924;2023-03-26T02:09:49;151.30;;;85.60;;
30874;SDS011;17581;43.222;27.924;2023-03-26T02:12:19;159.27;;;87.15;;
30874;SDS011;17581;43.222;27.924;2023-03-26T02:14:46;160.73;;;84.07;;
30874;SDS011;17581;43.222;27.924;2023-03-26T02:17:13;161.43;;;85.55;;
30874;SDS011;17581;43.222;27.924;2023-03-26T02:19:38;154.75;;;81.88;;
30874;SDS011;17581;43.222;27.924;2023-03-26T02:22:10;140.43;;;81.47;;
30874;SDS011;17581;43.222;27.924;2023-03-26T02:24:39;140.07;;;78.97;;
30874;SDS011;17581;43.222;27.924;2023-03-26T02:27:05;147.73;;;81.05;;
30874;SDS011;17581;43.222;27.924;2023-03-26T02:29:36;135.95;;;78.95;;
30874;SDS011;17581;43.222;27.924;2023-03-26T02:32:05;139.70;;;77.80;;
30874;SDS011;17581;43.222;27.924;2023-03-26T02:34:32;143.57;;;82.13;;
30874;SDS011;17581;43.222;27.924;2023-03-26T02:36:57;137.63;;;78.88;;
30874;SDS011;17581;43.222;27.924;2023-03-26T02:39:23;141.05;;;78.78;;
30874;SDS011;17581;43.222;27.924;2023-03-26T02:41:50;132.23;;;74.18;;
30874;SDS011;17581;43.222;27.924;2023-03-26T02:44:15;98.47;;;57.42;;
30874;SDS011;17581;43.222;27.924;2023-03-26T02:46:41;105.18;;;61.17;;
30874;SDS011;17581;43.222;27.924;2023-03-26T02:49:06;97.43;;;55.78;;
30874;SDS011;17581;43.222;27.924;2023-03-26T02:51:32;80.97;;;48.78;;
30874;SDS011;17581;43.222;27.924;2023-03-26T02:54:01;80.50;;;48.05;;
30874;SDS011;17581;43.222;27.924;2023-03-26T02:56:28;73.85;;;42.80;;
30874;SDS011;17581;43.222;27.924;2023-03-26T02:58:53;73.22;;;45.00;;
30874;SDS011;17581;43.222;27.924;2023-03-26T03:01:19;75.35;;;45.53;;
30874;SDS011;17581;43.222;27.924;2023-03-26T03:03:44;72.97;;;45.15;;
30874;SDS011;17581;43.222;27.924;2023-03-26T03:06:13;83.07;;;45.47;;
30874;SDS011;17581;43.222;27.924;2023-03-26T03:08:42;72.07;;;43.97;;
30874;SDS011;17581;43.222;27.924;2023-03-26T03:11:17;86.70;;;45.67;;
30874;SDS011;17581;43.222;27.924;2023-03-26T03:13:48;65.95;;;41.67;;
30874;SDS011;17581;43.222;27.924;2023-03-26T03:16:14;65.10;;;39.65;;
30874;SDS011;17581;43.222;27.924;2023-03-26T03:18:40;71.10;;;40.97;;
30874;SDS011;17581;43.222;27.924;2023-03-26T03:21:06;69.90;;;39.05;;
30874;SDS011;17581;43.222;27.924;2023-03-26T03:23:31;60.92;;;36.97;;
30874;SDS011;17581;43.222;27.924;2023-03-26T03:25:57;60.05;;;37.90;;
30874;SDS011;17581;43.222;27.924;2023-03-26T03:28:23;58.78;;;34.92;;
30874;SDS011;17581;43.222;27.924;2023-03-26T03:30:49;56.15;;;31.90;;
30874;SDS011;17581;43.222;27.924;2023-03-26T03:33:20;57.30;;;33.70;;
30874;SDS011;17581;43.222;27.924;2023-03-26T03:35:46;45.67;;;28.60;;
30874;SDS011;17581;43.222;27.924;2023-03-26T03:38:13;48.20;;;30.38;;
30874;SDS011;17581;43.222;27.924;2023-03-26T03:40:40;50.40;;;28.67;;
30874;SDS011;17581;43.222;27.924;2023-03-26T03:43:07;48.53;;;27.95;;
30874;SDS011;17581;43.222;27.924;2023-03-26T03:45:32;41.22;;;26.00;;
30874;SDS011;17581;43.222;27.924;2023-03-26T03:47:58;48.88;;;28.98;;
30874;SDS011;17581;43.222;27.924;2023-03-26T03:50:23;42.17;;;27.02;;
30874;SDS011;17581;43.222;27.924;2023-03-26T03:52:50;45.25;;;27.17;;
30874;SDS011;17581;43.222;27.924;2023-03-26T03:55:16;44.70;;;27.25;;
30874;SDS011;17581;43.222;27.924;2023-03-26T03:57:41;58.65;;;27.65;;
30874;SDS011;17581;43.222;27.924;2023-03-26T04:00:07;39.20;;;25.55;;
30874;SDS011;17581;43.222;27.924;2023-03-26T04:02:36;39.20;;;23.65;;
30874;SDS011;17581;43.222;27.924;2023-03-26T04:05:02;33.70;;;22.65;;
30874;SDS011;17581;43.222;27.924;2023-03-26T04:07:30;29.60;;;19.75;;
30874;SDS011;17581;43.222;27.924;2023-03-26T04:09:56;23.77;;;14.88;;
30874;SDS011;17581;43.222;27.924;2023-03-26T04:12:27;18.90;;;8.50;;
30874;SDS011;17581;43.222;27.924;2023-03-26T04:14:53;8.85;;;6.15;;
30874;SDS011;17581;43.222;27.924;2023-03-26T04:17:19;5.03;;;4.03;;
30874;SDS011;17581;43.222;27.924;2023-03-26T04:19:46;6.55;;;5.30;;
30874;SDS011;17581;43.222;27.924;2023-03-26T04:22:12;7.45;;;4.43;;
30874;SDS011;17581;43.222;27.924;2023-03-26T04:24:37;7.63;;;4.80;;
30874;SDS011;17581;43.222;27.924;2023-03-26T04:27:06;6.40;;;4.53;;
30874;SDS011;17581;43.222;27.924;2023-03-26T04:29:37;6.55;;;4.68;;
30874;SDS011;17581;43.222;27.924;2023-03-26T04:32:09;8.30;;;5.40;;
30874;SDS011;17581;43.222;27.924;2023-03-26T04:34:43;6.45;;;4.47;;
30874;SDS011;17581;43.222;27.924;2023-03-26T04:37:12;10.45;;;5.05;;
30874;SDS011;17581;43.222;27.924;2023-03-26T04:39:46;6.57;;;5.00;;
30874;SDS011;17581;43.222;27.924;2023-03-26T04:42:11;6.88;;;4.88;;
30874;SDS011;17581;43.222;27.924;2023-03-26T04:44:38;6.85;;;5.15;;
30874;SDS011;17581;43.222;27.924;2023-03-26T04:47:06;6.10;;;5.30;;
30874;SDS011;17581;43.222;27.924;2023-03-26T04:49:31;7.15;;;5.53;;
30874;SDS011;17581;43.222;27.924;2023-03-26T04:51:57;5.47;;;4.60;;
30874;SDS011;17581;43.222;27.924;2023-03-26T04:54:23;7.05;;;5.43;;
30874;SDS011;17581;43.222;27.924;2023-03-26T04:56:53;6.93;;;4.50;;
30874;SDS011;17581;43.222;27.924;2023-03-26T04:59:27;13.20;;;5.07;;
30874;SDS011;17581;43.222;27.924;2023-03-26T05:01:59;5.95;;;4.40;;
30874;SDS011;17581;43.222;27.924;2023-03-26T05:04:26;6.40;;;4.75;;
30874;SDS011;17581;43.222;27.924;2023-03-26T05:06:53;11.55;;;6.15;;
30874;SDS011;17581;43.222;27.924;2023-03-26T05:09:23;10.07;;;5.88;;
30874;SDS011;17581;43.222;27.924;2023-03-26T05:11:49;8.40;;;5.97;;
30874;SDS011;17581;43.222;27.924;2023-03-26T05:14:15;11.38;;;6.22;;
30874;SDS011;17581;43.222;27.924;2023-03-26T05:16:41;10.63;;;6.05;;
30874;SDS011;17581;43.222;27.924;2023-03-26T05:19:08;10.25;;;6.53;;
30874;SDS011;17581;43.222;27.924;2023-03-26T05:21:34;13.13;;;7.53;;
30874;SDS011;17581;43.222;27.924;2023-03-26T05:24:00;8.95;;;6.32;;
30874;SDS011;17581;43.222;27.924;2023-03-26T05:26:26;6.78;;;5.55;;
30874;SDS011;17581;43.222;27.924;2023-03-26T05:28:54;10.27;;;5.10;;
30874;SDS011;17581;43.222;27.924;2023-03-26T05:31:20;10.90;;;6.60;;
30874;SDS011;17581;43.222;27.924;2023-03-26T05:33:46;9.52;;;6.40;;
30874;SDS011;17581;43.222;27.924;2023-03-26T05:36:13;8.43;;;6.22;;
30874;SDS011;17581;43.222;27.924;2023-03-26T05:38:39;9.27;;;6.95;;
30874;SDS011;17581;43.222;27.924;2023-03-26T05:41:06;10.23;;;6.65;;
30874;SDS011;17581;43.222;27.924;2023-03-26T05:43:32;11.90;;;6.38;;
30874;SDS011;17581;43.222;27.924;2023-03-26T05:45:59;9.40;;;6.35;;
30874;SDS011;17581;43.222;27.924;2023-03-26T05:48:25;9.20;;;6.07;;
30874;SDS011;17581;43.222;27.924;2023-03-26T05:50:51;7.60;;;4.97;;
30874;SDS011;17581;43.222;27.924;2023-03-26T05:53:18;6.63;;;5.45;;
30874;SDS011;17581;43.222;27.924;2023-03-26T05:55:45;6.13;;;4.93;;
30874;SDS011;17581;43.222;27.924;2023-03-26T05:58:14;7.95;;;5.28;;
30874;SDS011;17581;43.222;27.924;2023-03-26T06:00:41;7.85;;;5.50;;
30874;SDS011;17581;43.222;27.924;2023-03-26T06:03:07;8.93;;;5.55;;
30874;SDS011;17581;43.222;27.924;2023-03-26T06:05:36;9.40;;;5.32;;
30874;SDS011;17581;43.222;27.924;2023-03-26T06:08:04;9.02;;;5.68;;
30874;SDS011;17581;43.222;27.924;2023-03-26T06:10:30;7.25;;;4.88;;
30874;SDS011;17581;43.222;27.924;2023-03-26T06:12:56;8.55;;;4.90;;
30874;SDS011;17581;43.222;27.924;2023-03-26T06:15:21;6.00;;;4.60;;
30874;SDS011;17581;43.222;27.924;2023-03-26T06:17:47;7.32;;;4.13;;
30874;SDS011;17581;43.222;27.924;2023-03-26T06:20:13;6.70;;;4.57;;
30874;SDS011;17581;43.222;27.924;2023-03-26T06:22:39;5.60;;;4.70;;
30874;SDS011;17581;43.222;27.924;2023-03-26T06:25:05;12.15;;;5.70;;
30874;SDS011;17581;43.222;27.924;2023-03-26T06:27:31;7.90;;;4.93;;
30874;SDS011;17581;43.222;27.924;2023-03-26T06:29:56;13.88;;;5.55;;
30874;SDS011;17581;43.222;27.924;2023-03-26T06:32:21;9.75;;;4.45;;
30874;SDS011;17581;43.222;27.924;2023-03-26T06:34:47;6.35;;;4.18;;
30874;SDS011;17581;43.222;27.924;2023-03-26T06:37:13;5.47;;;4.40;;
30874;SDS011;17581;43.222;27.924;2023-03-26T06:39:40;6.70;;;4.20;;
30874;SDS011;17581;43.222;27.924;2023-03-26T06:42:05;6.18;;;4.03;;
30874;SDS011;17581;43.222;27.924;2023-03-26T06:44:31;7.00;;;4.05;;
30874;SDS011;17581;43.222;27.924;2023-03-26T06:46:56;6.13;;;4.00;;
30874;SDS011;17581;43.222;27.924;2023-03-26T06:49:22;7.30;;;3.63;;
30874;SDS011;17581;43.222;27.924;2023-03-26T06:51:47;8.60;;;5.20;;
30874;SDS011;17581;43.222;27.924;2023-03-26T06:54:13;6.00;;;3.90;;
30874;SDS011;17581;43.222;27.924;2023-03-26T06:56:38;10.88;;;3.63;;
30874;SDS011;17581;43.222;27.924;2023-03-26T06:59:04;7.93;;;3.25;;
30874;SDS011;17581;43.222;27.924;2023-03-26T07:01:29;6.30;;;4.05;;
30874;SDS011;17581;43.222;27.924;2023-03-26T07:03:55;6.25;;;4.22;;
30874;SDS011;17581;43.222;27.924;2023-03-26T07:06:21;7.30;;;4.00;;
30874;SDS011;17581;43.222;27.924;2023-03-26T07:08:46;8.35;;;4.65;;
30874;SDS011;17581;43.222;27.924;2023-03-26T07:11:13;4.97;;;4.20;;
30874;SDS011;17581;43.222;27.924;2023-03-26T07:13:40;13.93;;;4.68;;
30874;SDS011;17581;43.222;27.924;2023-03-26T07:16:06;10.88;;;4.05;;
30874;SDS011;17581;43.222;27.924;2023-03-26T07:18:32;8.38;;;6.10;;
30874;SDS011;17581;43.222;27.924;2023-03-26T07:20:57;10.68;;;3.80;;
30874;SDS011;17581;43.222;27.924;2023-03-26T07:23:23;5.57;;;3.40;;
30874;SDS011;17581;43.222;27.924;2023-03-26T07:25:49;5.97;;;3.90;;
30874;SDS011;17581;43.222;27.924;2023-03-26T07:31:02;4.55;;;3.63;;
30874;SDS011;17581;43.222;27.924;2023-03-26T07:33:54;9.55;;;3.95;;
30874;SDS011;17581;43.222;27.924;2023-03-26T07:45:08;7.93;;;3.42;;
30874;SDS011;17581;43.222;27.924;2023-03-26T07:47:34;10.07;;;3.58;;
30874;SDS011;17581;43.222;27.924;2023-03-26T07:50:00;9.55;;;3.90;;
30874;SDS011;17581;43.222;27.924;2023-03-26T07:52:27;14.57;;;3.90;;
30874;SDS011;17581;43.222;27.924;2023-03-26T07:54:53;8.00;;;3.83;;
30874;SDS011;17581;43.222;27.924;2023-03-26T08:05:34;11.93;;;5.13;;
30874;SDS011;17581;43.222;27.924;2023-03-26T08:13:27;12.40;;;5.45;;
30874;SDS011;17581;43.222;27.924;2023-03-26T08:21:35;11.57;;;6.35;;
30874;SDS011;17581;43.222;27.924;2023-03-26T08:24:23;10.07;;;6.60;;
30874;SDS011;17581;43.222;27.924;2023-03-26T08:26:58;9.60;;;6.70;;
30874;SDS011;17581;43.222;27.924;2023-03-26T08:30:04;10.25;;;6.10;;
30874;SDS011;17581;43.222;27.924;2023-03-26T08:32:28;14.85;;;5.82;;
30874;SDS011;17581;43.222;27.924;2023-03-26T08:34:53;6.88;;;5.30;;
30874;SDS011;17581;43.222;27.924;2023-03-26T08:37:21;10.10;;;5.43;;
30874;SDS011;17581;43.222;27.924;2023-03-26T08:39:46;16.33;;;6.22;;
30874;SDS011;17581;43.222;27.924;2023-03-26T08:42:25;11.38;;;6.28;;
30874;SDS011;17581;43.222;27.924;2023-03-26T08:50:54;14.93;;;5.30;;
30874;SDS011;17581;43.222;27.924;2023-03-26T09:09:49;7.90;;;4.63;;
30874;SDS011;17581;43.222;27.924;2023-03-26T09:26:43;7.00;;;3.00;;
30874;SDS011;17581;43.222;27.924;2023-03-26T09:49:20;5.18;;;2.80;;
30874;SDS011;17581;43.222;27.924;2023-03-26T09:57:47;22.20;;;3.95;;
30874;SDS011;17581;43.222;27.924;2023-03-26T10:05:34;9.50;;;2.70;;
30874;SDS011;17581;43.222;27.924;2023-03-26T10:11:12;16.05;;;3.60;;
30874;SDS011;17581;43.222;27.924;2023-03-26T10:22:10;4.93;;;3.55;;
30874;SDS011;17581;43.222;27.924;2023-03-26T10:44:12;5.40;;;3.13;;
30874;SDS011;17581;43.222;27.924;2023-03-26T10:46:52;21.30;;;4.22;;
30874;SDS011;17581;43.222;27.924;2023-03-26T10:52:11;7.53;;;2.20;;
30874;SDS011;17581;43.222;27.924;2023-03-26T10:57:52;9.20;;;2.60;;
30874;SDS011;17581;43.222;27.924;2023-03-26T11:00:34;5.93;;;2.22;;
30874;SDS011;17581;43.222;27.924;2023-03-26T11:03:11;1.70;;;1.60;;
30874;SDS011;17581;43.222;27.924;2023-03-26T11:16:02;5.15;;;2.20;;
30874;SDS011;17581;43.222;27.924;2023-03-26T11:26:22;4.50;;;2.05;;
30874;SDS011;17581;43.222;27.924;2023-03-26T11:32:04;4.85;;;1.85;;
30874;SDS011;17581;43.222;27.924;2023-03-26T11:34:37;2.22;;;1.52;;
30874;SDS011;17581;43.222;27.924;2023-03-26T11:37:28;6.25;;;2.15;;
30874;SDS011;17581;43.222;27.924;2023-03-26T11:39:58;3.55;;;1.60;;
30874;SDS011;17581;43.222;27.924;2023-03-26T11:42:30;3.63;;;1.73;;
30874;SDS011;17581;43.222;27.924;2023-03-26T11:44:57;7.25;;;1.65;;
30874;SDS011;17581;43.222;27.924;2023-03-26T11:47:34;3.95;;;1.45;;
30874;SDS011;17581;43.222;27.924;2023-03-26T11:50:07;4.03;;;1.52;;
30874;SDS011;17581;43.222;27.924;2023-03-26T11:52:40;6.50;;;1.55;;
30874;SDS011;17581;43.222;27.924;2023-03-26T11:55:09;9.55;;;1.88;;
30874;SDS011;17581;43.222;27.924;2023-03-26T11:57:36;2.80;;;1.52;;
30874;SDS011;17581;43.222;27.924;2023-03-26T12:00:11;4.60;;;1.60;;
30874;SDS011;17581;43.222;27.924;2023-03-26T12:02:43;7.78;;;1.60;;
30874;SDS011;17581;43.222;27.924;2023-03-26T12:07:44;3.17;;;1.50;;
30874;SDS011;17581;43.222;27.924;2023-03-26T12:10:19;9.25;;;1.88;;
30874;SDS011;17581;43.222;27.924;2023-03-26T12:12:48;3.47;;;1.77;;
30874;SDS011;17581;43.222;27.924;2023-03-26T12:15:18;3.15;;;1.90;;
30874;SDS011;17581;43.222;27.924;2023-03-26T12:17:46;29.92;;;4.15;;
30874;SDS011;17581;43.222;27.924;2023-03-26T12:22:49;4.90;;;2.00;;
30874;SDS011;17581;43.222;27.924;2023-03-26T12:25:20;6.68;;;1.67;;
30874;SDS011;17581;43.222;27.924;2023-03-26T12:27:51;5.00;;;2.00;;
30874;SDS011;17581;43.222;27.924;2023-03-26T12:30:33;10.90;;;1.60;;
30874;SDS011;17581;43.222;27.924;2023-03-26T12:33:03;2.25;;;1.55;;
30874;SDS011;17581;43.222;27.924;2023-03-26T12:35:32;6.72;;;2.20;;
30874;SDS011;17581;43.222;27.924;2023-03-26T12:38:18;11.30;;;3.58;;
30874;SDS011;17581;43.222;27.924;2023-03-26T12:43:42;4.30;;;2.55;;
30874;SDS011;17581;43.222;27.924;2023-03-26T12:46:23;7.32;;;2.20;;
30874;SDS011;17581;43.222;27.924;2023-03-26T12:48:52;3.40;;;1.70;;
30874;SDS011;17581;43.222;27.924;2023-03-26T13:05:04;3.17;;;1.55;;
30874;SDS011;17581;43.222;27.924;2023-03-26T13:16:30;3.05;;;1.90;;
30874;SDS011;17581;43.222;27.924;2023-03-26T13:19:22;4.30;;;1.92;;
30874;SDS011;17581;43.222;27.924;2023-03-26T13:25:12;4.32;;;2.00;;
30874;SDS011;17581;43.222;27.924;2023-03-26T13:30:51;42.50;;;5.30;;
30874;SDS011;17581;43.222;27.924;2023-03-26T13:36:05;5.20;;;1.88;;
30874;SDS011;17581;43.222;27.924;2023-03-26T13:48:59;15.75;;;3.30;;
30874;SDS011;17581;43.222;27.924;2023-03-26T13:51:33;12.70;;;2.75;;
30874;SDS011;17581;43.222;27.924;2023-03-26T13:54:11;4.13;;;2.00;;
30874;SDS011;17581;43.222;27.924;2023-03-26T13:56:49;5.03;;;1.92;;
30874;SDS011;17581;43.222;27.924;2023-03-26T14:01:54;17.15;;;3.15;;
30874;SDS011;17581;43.222;27.924;2023-03-26T14:04:28;47.15;;;5.22;;
30874;SDS011;17581;43.222;27.924;2023-03-26T14:07:01;8.05;;;2.40;;
30874;SDS011;17581;43.222;27.924;2023-03-26T14:09:33;5.85;;;2.92;;
30874;SDS011;17581;43.222;27.924;2023-03-26T14:15:00;11.60;;;3.38;;
30874;SDS011;17581;43.222;27.924;2023-03-26T14:17:38;18.92;;;4.10;;
30874;SDS011;17581;43.222;27.924;2023-03-26T14:20:20;5.30;;;2.65;;
30874;SDS011;17581;43.222;27.924;2023-03-26T14:23:02;7.50;;;2.72;;
30874;SDS011;17581;43.222;27.924;2023-03-26T14:25:38;7.13;;;1.70;;
30874;SDS011;17581;43.222;27.924;2023-03-26T14:42:24;18.92;;;3.85;;
30874;SDS011;17581;43.222;27.924;2023-03-26T14:47:40;5.18;;;2.30;;
30874;SDS011;17581;43.222;27.924;2023-03-26T14:53:02;34.47;;;3.35;;
30874;SDS011;17581;43.222;27.924;2023-03-26T15:33:40;10.88;;;2.53;;
30874;SDS011;17581;43.222;27.924;2023-03-26T15:44:22;6.30;;;1.60;;
30874;SDS011;17581;43.222;27.924;2023-03-26T15:49:39;5.43;;;2.50;;
30874;SDS011;17581;43.222;27.924;2023-03-26T15:52:24;13.40;;;2.67;;
30874;SDS011;17581;43.222;27.924;2023-03-26T16:14:23;9.38;;;2.60;;
30874;SDS011;17581;43.222;27.924;2023-03-26T16:17:10;39.08;;;5.03;;
30874;SDS011;17581;43.222;27.924;2023-03-26T16:19:55;7.95;;;2.67;;
30874;SDS011;17581;43.222;27.924;2023-03-26T16:25:53;28.90;;;7.47;;
30874;SDS011;17581;43.222;27.924;2023-03-26T16:28:30;16.50;;;4.05;;
30874;SDS011;17581;43.222;27.924;2023-03-26T16:33:35;18.05;;;3.88;;
30874;SDS011;17581;43.222;27.924;2023-03-26T16:36:25;17.52;;;4.50;;
30874;SDS011;17581;43.222;27.924;2023-03-26T16:46:33;19.13;;;4.88;;
30874;SDS011;17581;43.222;27.924;2023-03-26T16:49:14;15.27;;;3.65;;
30874;SDS011;17581;43.222;27.924;2023-03-26T16:54:44;61.53;;;8.00;;
30874;SDS011;17581;43.222;27.924;2023-03-26T17:16:03;13.07;;;3.92;;
30874;SDS011;17581;43.222;27.924;2023-03-26T17:41:07;18.13;;;6.35;;
30874;SDS011;17581;43.222;27.924;2023-03-26T17:49:13;16.17;;;5.55;;
30874;SDS011;17581;43.222;27.924;2023-03-26T17:54:15;22.75;;;6.03;;
30874;SDS011;17581;43.222;27.924;2023-03-26T17:56:49;22.50;;;8.55;;
30874;SDS011;17581;43.222;27.924;2023-03-26T17:59:20;31.00;;;6.38;;
30874;SDS011;17581;43.222;27.924;2023-03-26T18:01:51;25.60;;;6.53;;
30874;SDS011;17581;43.222;27.924;2023-03-26T18:04:24;24.58;;;7.75;;
30874;SDS011;17581;43.222;27.924;2023-03-26T18:10:09;14.40;;;6.40;;
30874;SDS011;17581;43.222;27.924;2023-03-26T18:12:46;20.90;;;7.33;;
30874;SDS011;17581;43.222;27.924;2023-03-26T18:17:48;16.33;;;6.68;;
30874;SDS011;17581;43.222;27.924;2023-03-26T18:22:47;130.80;;;17.85;;
30874;SDS011;17581;43.222;27.924;2023-03-26T18:25:25;10.73;;;4.75;;
30874;SDS011;17581;43.222;27.924;2023-03-26T18:27:57;67.85;;;10.02;;
30874;SDS011;17581;43.222;27.924;2023-03-26T18:30:26;48.25;;;9.25;;
30874;SDS011;17581;43.222;27.924;2023-03-26T18:32:55;40.10;;;9.35;;
30874;SDS011;17581;43.222;27.924;2023-03-26T18:35:25;13.77;;;6.30;;
30874;SDS011;17581;43.222;27.924;2023-03-26T18:37:53;21.33;;;7.03;;
30874;SDS011;17581;43.222;27.924;2023-03-26T18:40:24;26.77;;;11.57;;
30874;SDS011;17581;43.222;27.924;2023-03-26T18:43:15;42.17;;;11.68;;
30874;SDS011;17581;43.222;27.924;2023-03-26T18:45:43;49.88;;;12.27;;
30874;SDS011;17581;43.222;27.924;2023-03-26T18:48:17;31.17;;;11.60;;
30874;SDS011;17581;43.222;27.924;2023-03-26T18:50:46;56.75;;;17.88;;
30874;SDS011;17581;43.222;27.924;2023-03-26T18:53:17;45.35;;;18.45;;
30874;SDS011;17581;43.222;27.924;2023-03-26T18:55:46;61.67;;;19.75;;
30874;SDS011;17581;43.222;27.924;2023-03-26T18:58:36;54.78;;;22.25;;
30874;SDS011;17581;43.222;27.924;2023-03-26T19:01:06;62.67;;;27.13;;
30874;SDS011;17581;43.222;27.924;2023-03-26T19:03:35;183.48;;;42.60;;
30874;SDS011;17581;43.222;27.924;2023-03-26T19:06:03;151.65;;;31.13;;
30874;SDS011;17581;43.222;27.924;2023-03-26T19:08:34;103.97;;;36.40;;
30874;SDS011;17581;43.222;27.924;2023-03-26T19:11:04;109.80;;;33.08;;
30874;SDS011;17581;43.222;27.924;2023-03-26T19:13:31;126.22;;;37.55;;
30874;SDS011;17581;43.222;27.924;2023-03-26T19:15:59;102.28;;;37.22;;
30874;SDS011;17581;43.222;27.924;2023-03-26T19:18:29;97.03;;;32.30;;
30874;SDS011;17581;43.222;27.924;2023-03-26T19:21:01;74.80;;;26.13;;
30874;SDS011;17581;43.222;27.924;2023-03-26T19:23:29;82.55;;;26.42;;
30874;SDS011;17581;43.222;27.924;2023-03-26T19:25:59;96.47;;;31.45;;
30874;SDS011;17581;43.222;27.924;2023-03-26T19:28:34;54.88;;;22.08;;
30874;SDS011;17581;43.222;27.924;2023-03-26T19:31:07;39.65;;;16.48;;
30874;SDS011;17581;43.222;27.924;2023-03-26T19:33:39;52.00;;;15.48;;
30874;SDS011;17581;43.222;27.924;2023-03-26T19:38:49;59.45;;;17.48;;
30874;SDS011;17581;43.222;27.924;2023-03-26T19:41:30;35.75;;;13.75;;
30874;SDS011;17581;43.222;27.924;2023-03-26T19:44:02;72.60;;;17.88;;
30874;SDS011;17581;43.222;27.924;2023-03-26T19:46:42;43.38;;;13.25;;
30874;SDS011;17581;43.222;27.924;2023-03-26T19:52:19;32.45;;;15.40;;
30874;SDS011;17581;43.222;27.924;2023-03-26T19:57:13;37.75;;;15.00;;
30874;SDS011;17581;43.222;27.924;2023-03-26T19:59:39;31.00;;;15.20;;
30874;SDS011;17581;43.222;27.924;2023-03-26T20:02:08;33.40;;;18.58;;
30874;SDS011;17581;43.222;27.924;2023-03-26T20:04:35;34.08;;;19.25;;
30874;SDS011;17581;43.222;27.924;2023-03-26T20:07:01;33.88;;;17.17;;
30874;SDS011;17581;43.222;27.924;2023-03-26T20:09:29;51.75;;;13.52;;
30874;SDS011;17581;43.222;27.924;2023-03-26T20:11:55;36.03;;;13.57;;
30874;SDS011;17581;43.222;27.924;2023-03-26T20:14:20;32.78;;;11.38;;
30874;SDS011;17581;43.222;27.924;2023-03-26T20:16:49;48.83;;;13.48;;
30874;SDS011;17581;43.222;27.924;2023-03-26T20:19:15;40.63;;;17.05;;
30874;SDS011;17581;43.222;27.924;2023-03-26T20:21:41;52.33;;;20.23;;
30874;SDS011;17581;43.222;27.924;2023-03-26T20:24:09;86.15;;;26.55;;
30874;SDS011;17581;43.222;27.924;2023-03-26T20:26:37;95.88;;;27.75;;
30874;SDS011;17581;43.222;27.924;2023-03-26T20:29:02;125.57;;;32.70;;
30874;SDS011;17581;43.222;27.924;2023-03-26T20:31:28;68.70;;;25.75;;
30874;SDS011;17581;43.222;27.924;2023-03-26T20:33:53;62.17;;;17.70;;
30874;SDS011;17581;43.222;27.924;2023-03-26T20:36:20;85.60;;;17.50;;
30874;SDS011;17581;43.222;27.924;2023-03-26T20:38:45;49.58;;;13.57;;
30874;SDS011;17581;43.222;27.924;2023-03-26T20:41:15;69.38;;;15.63;;
30874;SDS011;17581;43.222;27.924;2023-03-26T20:43:44;36.17;;;12.50;;
30874;SDS011;17581;43.222;27.924;2023-03-26T20:46:17;43.45;;;14.63;;
30874;SDS011;17581;43.222;27.924;2023-03-26T20:48:44;44.55;;;12.65;;
30874;SDS011;17581;43.222;27.924;2023-03-26T20:51:11;58.55;;;11.23;;
30874;SDS011;17581;43.222;27.924;2023-03-26T20:53:39;35.53;;;11.40;;
30874;SDS011;17581;43.222;27.924;2023-03-26T20:56:13;26.33;;;10.45;;
30874;SDS011;17581;43.222;27.924;2023-03-26T20:58:41;22.90;;;7.55;;
30874;SDS011;17581;43.222;27.924;2023-03-26T21:01:08;20.00;;;8.05;;
30874;SDS011;17581;43.222;27.924;2023-03-26T21:03:35;28.98;;;8.35;;
30874;SDS011;17581;43.222;27.924;2023-03-26T21:06:03;31.65;;;8.85;;
30874;SDS011;17581;43.222;27.924;2023-03-26T21:08:30;22.70;;;8.38;;
30874;SDS011;17581;43.222;27.924;2023-03-26T21:10:59;26.00;;;8.25;;